Mecca, Indiana
Current Conditions -  °F | °C
As of 1:35 PM on Monday 26 Jan 2015 (Local Time) from KPRG Reporting Station
Overcast Overcast  
Wind Chill: 22°   Ceiling: 1900
Heat Index: 29°   Visibility: 10mi
Dew Point: 24°   Wind: 7mph
Humidity: 82%   Direction: 40°NE
Pressure: 29.94"   Gusts: NA
Location:  39.73°N, 87.33°W
Report Text: KPRG 261835Z AUTO 04006KT 10SM OVC019 M02/M04 A2994 RMK AO2 T10181045
Loading
Personal Weather Stations






























Interactive Weather Map New forecast layout! Learn more

10-Day Weather Forecast

Advertisements
Track Severe Weather on mobile